KFRI/FRI METAR and TAF weather

Enter ICAO airport designator
Station Type Date Time Source
KFRI METAR 2020/09/25 18:56 UTC NOAA

KFRI 251856Z AUTO 19012KT 10SM CLR 32/17 A2977 RMK AO2 SLP069 T03160171


Station Type Date Time Source
KFRI Decoded METAR 2020/09/25 18:56 UTC NOAA

Fort Riley, Marshall AAF Ft Riley, KS, United States (KFRI) 39-03-20N 096-45-51W
Sep 25, 2020 - 02:56 PM EDT / 2020.09.25 1856 UTC
Wind: from the S (190 degrees) at 14 MPH (12 KT):0
Visibility: 10 mile(s):0
Sky conditions: clear
Temperature: 88.9 F (31.6 C)
Dew Point: 62.8 F (17.1 C)
Relative Humidity: 41%
Pressure (altimeter): 29.77 in. Hg (1008 hPa)
ob: KFRI 251856Z AUTO 19012KT 10SM CLR 32/17 A2977 RMK AO2 SLP069 T03160171
cycle: 19

Station Type Date Time Source
KFRI TAF 2020/09/25 05:09 UTC NOAA

TAF TAF KFRI 250500Z 2505/2611 18009KT 9999 SKC QNH2974INS TX30/2521Z TN17/2512Z

Example: see airport list